Time;durP1;ratioP1;P1;durP2;ratioP2;P2;SDS_P1;SDS_P2;PMS_P1;PMS_P2;Temp;Humidity;BMP_temperature;BMP_pressure;BME280_temperature;BME280_humidity;BME280_pressure;Samples;Min_cycle;Max_cycle;Signal;HPM_P1;HPM_P2
2021/03/30 00:02:23;;;;;;;105.70;27.42;;;;;;;9.20;72.41;71583.81;4994113;28;20038;-87
2021/03/30 00:04:50;;;;;;;128.48;32.80;;;;;;;8.37;72.58;71483.16;4977446;28;20037;-87
2021/03/30 00:07:17;;;;;;;123.22;31.13;;;;;;;8.00;73.06;71447.00;4977023;28;20496;-87
2021/03/30 00:09:44;;;;;;;106.95;29.50;;;;;;;7.42;72.09;71374.94;4977281;28;20022;-87
2021/03/30 00:12:11;;;;;;;85.53;27.38;;;;;;;7.21;72.51;71356.69;4978473;28;20081;-87
2021/03/30 00:14:38;;;;;;;117.72;29.42;;;;;;;9.08;71.67;71567.97;4991117;28;20042;-87
2021/03/30 00:17:05;;;;;;;108.22;31.25;;;;;;;7.83;71.64;71424.63;4996154;28;20037;-86
2021/03/30 00:19:32;;;;;;;97.45;26.83;;;;;;;9.11;70.77;71571.56;4992235;28;20022;-87
2021/03/30 00:21:59;;;;;;;116.05;27.60;;;;;;;9.05;69.84;71564.41;4979809;28;20061;-85
2021/03/30 00:24:26;;;;;;;125.15;27.55;;;;;;;8.61;70.52;71511.69;4979811;28;20034;-87
2021/03/30 00:26:53;;;;;;;101.88;27.88;;;;;;;8.07;69.69;71449.84;4977958;28;20058;-86
2021/03/30 00:29:20;;;;;;;92.63;26.77;;;;;;;8.79;70.17;71536.81;4980530;28;20026;-86
2021/03/30 00:31:47;;;;;;;96.90;25.00;;;;;;;8.73;70.64;71525.38;4979351;28;20030;-87
2021/03/30 00:34:13;;;;;;;107.50;26.55;;;;;;;8.41;70.97;71487.88;4978644;28;20125;-85
2021/03/30 00:36:40;;;;;;;91.32;23.75;;;;;;;8.73;71.37;71527.53;4980385;28;20026;-86
2021/03/30 00:39:07;;;;;;;89.28;23.90;;;;;;;7.98;71.61;71441.28;4978838;28;20034;-88
2021/03/30 00:41:42;;;;;;;90.30;22.33;;;;;;;8.51;71.18;71505.28;4991076;28;20594;-87
2021/03/30 00:44:13;;;;;;;77.72;23.10;;;;;;;7.77;70.75;71418.09;4973978;28;20039;-88
2021/03/30 00:46:46;;;;;;;97.25;24.13;;;;;;;8.96;72.53;71551.56;4969577;28;20423;-87
2021/03/30 00:49:17;;;;;;;71.78;25.67;;;;;;;8.77;71.63;71535.03;4977185;28;20054;-87
2021/03/30 00:51:45;;;;;;;97.05;23.35;;;;;;;8.21;70.05;71465.31;4974387;28;20065;-87
2021/03/30 00:54:14;;;;;;;102.07;23.50;;;;;;;8.77;69.97;71535.03;4957375;28;20017;-87
2021/03/30 00:56:42;;;;;;;76.75;22.40;;;;;;;8.86;68.87;71540.25;4957402;28;20035;-87
2021/03/30 00:59:09;;;;;;;88.20;23.25;;;;;;;8.97;70.01;71554.91;4957388;28;20506;-88
2021/03/30 01:01:35;;;;;;;76.20;19.10;;;;;;;8.62;69.00;71512.88;4972740;28;20058;-87
2021/03/30 01:04:02;;;;;;;81.60;24.75;;;;;;;9.52;68.20;71615.22;4957313;28;20031;-88
2021/03/30 01:06:29;;;;;;;92.20;23.80;;;;;;;9.49;66.04;71617.72;4957164;28;20026;-88
2021/03/30 01:09:10;;;;;;;75.57;18.85;;;;;;;9.58;65.32;71622.94;4982424;28;20073;-87
2021/03/30 01:12:02;;;;;;;81.57;21.48;;;;;;;9.64;64.93;71629.50;4977705;28;20026;-87
2021/03/30 01:14:53;;;;;;;70.88;19.85;;;;;;;9.88;62.96;71656.28;4993071;28;20042;-86
2021/03/30 01:17:40;;;;;;;58.33;17.05;;;;;;;10.14;61.47;71689.41;4975415;28;20102;-86
2021/03/30 01:20:47;;;;;;;66.25;17.48;;;;;;;9.67;61.77;71635.22;4993907;28;20084;-87
2021/03/30 01:23:32;;;;;;;62.80;18.00;;;;;;;10.12;60.28;71687.59;4956414;28;20081;-87
2021/03/30 01:26:23;;;;;;;54.75;15.70;;;;;;;10.02;60.96;71672.34;4975631;28;20053;-87
2021/03/30 01:29:14;;;;;;;57.00;16.27;;;;;;;10.22;60.07;71696.19;4975804;28;20089;-88
2021/03/30 01:31:45;;;;;;;69.43;18.75;;;;;;;9.40;59.03;71607.03;4976389;28;20034;-88
2021/03/30 01:34:15;;;;;;;56.22;16.58;;;;;;;9.00;57.80;71555.72;4976975;28;20033;-87
2021/03/30 01:36:44;;;;;;;64.05;18.63;;;;;;;9.14;58.42;71574.50;4984085;28;20026;-86
2021/03/30 01:39:14;;;;;;;46.80;15.35;;;;;;;9.79;55.67;71651.66;4982196;28;20101;-86
2021/03/30 01:41:47;;;;;;;56.28;12.85;;;;;;;9.59;56.54;71626.31;4979851;28;20042;-86
2021/03/30 01:44:17;;;;;;;59.38;17.45;;;;;;;9.77;55.70;71643.78;4992380;28;20595;-87
2021/03/30 01:46:46;;;;;;;58.35;15.68;;;;;;;10.30;55.81;71704.50;4994794;28;20022;-85
2021/03/30 01:49:15;;;;;;;65.80;16.42;;;;;;;10.47;55.90;71724.78;4993178;28;20042;-87
2021/03/30 01:51:43;;;;;;;48.90;17.52;;;;;;;10.30;54.97;71704.50;4978106;28;20038;-87
2021/03/30 01:54:12;;;;;;;49.78;18.33;;;;;;;10.31;55.03;71711.81;4979154;28;20069;-87
2021/03/30 01:56:43;;;;;;;38.33;15.80;;;;;;;10.13;53.46;71688.22;4995767;28;20053;-87
2021/03/30 01:59:14;;;;;;;51.60;16.55;;;;;;;10.25;52.53;71702.50;4976415;28;20033;-86
2021/03/30 02:01:44;;;;;;;38.92;15.00;;;;;;;9.13;52.83;71573.34;4976233;28;20038;-87
2021/03/30 02:04:12;;;;;;;55.40;18.40;;;;;;;9.03;50.97;71562.03;4976968;28;20034;-87
2021/03/30 02:06:41;;;;;;;49.85;16.98;;;;;;;9.95;51.57;71665.22;4976540;28;20450;-87
2021/03/30 02:09:14;;;;;;;55.13;17.85;;;;;;;10.51;51.26;71735.06;4976269;28;20103;-88
2021/03/30 02:12:05;;;;;;;;;;;;;;;;;;;;;
2021/03/30 02:14:39;;;;;;;49.00;17.88;;;;;;;9.90;49.43;71664.75;4995373;28;20050;-86
2021/03/30 02:17:26;;;;;;;54.35;17.95;;;;;;;10.75;48.32;71759.69;4977339;28;20082;-86
2021/03/30 02:20:21;;;;;;;38.50;14.75;;;;;;;10.98;47.88;71783.16;4947776;28;20043;-88
2021/03/30 02:22:58;;;;;;;61.63;15.85;;;;;;;10.69;45.86;71749.81;4989178;28;20034;-86
2021/03/30 02:25:28;;;;;;;31.35;14.82;;;;;;;9.63;45.92;71631.06;4991831;28;20034;-85
2021/03/30 02:27:56;;;;;;;48.00;16.50;;;;;;;10.06;45.17;71679.88;4991642;28;20034;-87
2021/03/30 02:30:26;;;;;;;35.78;14.57;;;;;;;10.61;43.14;71740.28;4981735;28;20116;-86
2021/03/30 02:32:55;;;;;;;33.97;15.93;;;;;;;10.40;42.60;71721.91;4993285;28;20563;-87
2021/03/30 02:35:24;;;;;;;32.83;12.68;;;;;;;10.46;41.59;71723.59;4975878;28;20026;-87
2021/03/30 02:37:52;;;;;;;25.00;10.25;;;;;;;11.07;40.37;71798.81;4975432;28;20488;-86
2021/03/30 02:40:23;;;;;;;22.38;9.82;;;;;;;10.60;39.71;71742.44;4993121;28;20038;-85
2021/03/30 02:42:52;;;;;;;;;;;;;;;11.26;38.82;71814.75;4976170;28;20124;-85
2021/03/30 02:45:24;;;;;;;29.63;9.90;;;;;;;11.19;37.80;71809.75;4976635;28;19913;-87
2021/03/30 02:47:51;;;;;;;22.35;8.90;;;;;;;10.47;37.52;71724.78;4976310;28;20033;-85
2021/03/30 02:50:22;;;;;;;27.55;11.43;;;;;;;10.58;36.55;71740.03;4975783;28;20403;-87
2021/03/30 02:52:50;;;;;;;26.77;9.38;;;;;;;10.51;36.71;71732.31;4975636;28;20594;-86
2021/03/30 02:55:17;;;;;;;23.50;10.30;;;;;;;10.04;36.04;71678.09;4967317;28;20030;-85
2021/03/30 02:57:44;;;;;;;20.88;8.63;;;;;;;10.94;36.23;71778.41;4968347;28;20041;-86
2021/03/30 03:00:13;;;;;;;30.25;10.98;;;;;;;11.20;35.60;71805.44;4985213;28;20023;-85
2021/03/30 03:02:42;;;;;;;29.85;8.80;;;;;;;10.77;36.52;71762.06;4960137;28;20594;-88
2021/03/30 03:05:10;;;;;;;19.80;8.17;;;;;;;11.46;36.27;71837.97;4975423;28;20506;-87
2021/03/30 03:07:38;;;;;;;20.90;8.23;;;;;;;11.26;36.76;71815.34;4982134;28;20387;-87
2021/03/30 03:10:08;;;;;;;23.73;9.18;;;;;;;10.95;35.63;71782.34;4978027;28;20065;-86
2021/03/30 03:12:38;;;;;;;18.63;7.82;;;;;;;10.36;36.21;71711.66;4978049;28;20486;-87
2021/03/30 03:15:08;;;;;;;30.80;8.27;;;;;;;11.55;36.36;71851.47;4986743;28;20073;-86
2021/03/30 03:17:36;;;;;;;21.13;9.07;;;;;;;11.55;36.62;71848.72;4994438;28;20029;-86
2021/03/30 03:20:05;;;;;;;18.25;7.72;;;;;;;10.60;36.07;71739.09;4995509;28;20054;-86
2021/03/30 03:22:32;;;;;;;21.02;7.32;;;;;;;11.08;36.42;71795.09;5008901;28;20030;-87
2021/03/30 03:25:00;;;;;;;34.85;7.50;;;;;;;10.73;36.54;71757.31;5005935;28;20035;-86
2021/03/30 03:27:33;;;;;;;20.75;7.90;;;;;;;10.57;36.24;71735.50;5007687;28;20026;-87
2021/03/30 03:30:07;;;;;;;22.00;8.63;;;;;;;11.17;36.04;71804.63;5002582;28;20027;-86
2021/03/30 03:32:38;;;;;;;27.67;8.63;;;;;;;11.78;36.57;71877.72;4995902;28;20050;-88
2021/03/30 03:35:09;;;;;;;20.65;8.75;;;;;;;11.21;36.79;71810.00;4992153;28;20054;-87
2021/03/30 03:37:42;;;;;;;19.20;8.52;;;;;;;11.82;36.36;71882.47;4993518;28;20038;-86
2021/03/30 03:40:10;;;;;;;23.98;8.02;;;;;;;11.85;36.91;71886.06;4995421;28;20784;-86
2021/03/30 03:42:40;;;;;;;14.20;7.75;;;;;;;11.70;36.78;71865.41;4997216;28;20086;-85
2021/03/30 03:45:08;;;;;;;27.50;9.30;;;;;;;11.87;36.73;71885.69;4995134;28;20019;-87
2021/03/30 03:47:35;;;;;;;29.38;9.60;;;;;;;12.20;36.46;71923.28;4995426;28;20034;-87
2021/03/30 03:50:04;;;;;;;24.23;8.88;;;;;;;12.30;36.83;71931.84;4994220;28;20197;-87
2021/03/30 03:52:38;;;;;;;29.40;10.65;;;;;;;11.09;37.10;71799.03;4996053;28;20084;-86
2021/03/30 03:55:06;;;;;;;21.50;8.95;;;;;;;11.14;36.30;71806.53;4996467;28;20015;-86
2021/03/30 03:58:05;;;;;;;32.30;9.10;;;;;;;12.27;35.99;71931.03;4995038;28;20033;-87
2021/03/30 04:00:33;;;;;;;13.60;9.02;;;;;;;11.80;36.21;71880.09;4994806;28;20038;-86
2021/03/30 04:03:20;;;;;;;21.00;8.52;;;;;;;11.18;36.51;71806.41;5002799;28;20034;-86
2021/03/30 04:06:32;;;;;;;28.35;8.30;;;;;;;12.18;35.67;71924.22;4996665;28;20124;-86
2021/03/30 04:09:02;;;;;;;24.05;7.75;;;;;;;12.25;36.06;71931.41;4972566;28;20042;-87
2021/03/30 04:11:30;;;;;;;18.23;7.28;;;;;;;12.38;35.49;71949.66;4994915;28;20033;-86
2021/03/30 04:13:59;;;;;;;18.48;7.53;;;;;;;12.50;35.91;71962.78;4996007;28;20023;-86
2021/03/30 04:16:27;;;;;;;20.17;7.80;;;;;;;11.46;35.47;71840.72;4997926;28;20049;-87
2021/03/30 04:18:54;;;;;;;21.23;7.88;;;;;;;12.27;34.04;71933.78;4996612;28;20030;-87
2021/03/30 04:21:27;;;;;;;15.35;7.13;;;;;;;12.20;35.07;71925.44;4995198;28;20377;-88
2021/03/30 04:24:12;;;;;;;12.80;5.95;;;;;;;9.89;33.98;71658.09;4994873;28;20038;-87
2021/03/30 04:26:41;;;;;;;34.95;9.13;;;;;;;12.09;34.74;71912.91;4994850;28;20046;-88
2021/03/30 04:29:10;;;;;;;24.73;7.20;;;;;;;11.48;34.58;71843.13;4993947;28;20033;-88
2021/03/30 04:31:38;;;;;;;17.30;6.80;;;;;;;11.21;34.86;71812.75;4994936;28;20030;-87
2021/03/30 04:34:05;;;;;;;25.48;9.45;;;;;;;12.61;34.87;71970.41;5000117;28;20074;-85
2021/03/30 04:36:31;;;;;;;15.05;6.95;;;;;;;12.18;34.41;71923.63;5007157;28;20026;-87
2021/03/30 04:38:58;;;;;;;21.40;7.28;;;;;;;11.88;34.11;71886.25;5009040;28;20018;-85
2021/03/30 04:41:25;;;;;;;23.13;7.63;;;;;;;12.16;35.03;71915.75;4989066;28;20443;-86
2021/03/30 04:43:52;;;;;;;18.40;7.57;;;;;;;12.02;35.15;71907.88;4980348;28;20547;-86
2021/03/30 04:46:19;;;;;;;19.33;7.65;;;;;;;11.58;35.75;71857.81;4979428;28;20030;-86
2021/03/30 04:48:47;;;;;;;15.15;7.53;;;;;;;11.83;35.27;71874.81;4966937;28;20063;-85
2021/03/30 04:51:15;;;;;;;17.85;6.65;;;;;;;11.98;35.18;71897.59;4959258;28;20035;-87
2021/03/30 04:53:42;;;;;;;12.27;7.32;;;;;;;11.25;35.43;71816.91;4965175;28;20030;-86
2021/03/30 04:56:09;;;;;;;37.25;9.63;;;;;;;11.73;34.75;71869.59;4981934;28;20136;-86
2021/03/30 04:58:36;;;;;;;26.17;7.47;;;;;;;11.67;35.62;71861.81;4978665;28;20483;-87
2021/03/30 05:01:03;;;;;;;28.15;8.20;;;;;;;12.31;35.43;71941.31;4977413;28;20081;-87
2021/03/30 05:03:30;;;;;;;19.85;7.85;;;;;;;11.76;37.35;71875.31;4977441;28;20026;-87
2021/03/30 05:05:57;;;;;;;15.93;7.25;;;;;;;11.66;37.35;71861.25;4977289;28;20026;-88
2021/03/30 05:08:24;;;;;;;18.25;7.65;;;;;;;11.96;37.87;71895.22;4977266;28;20030;-86
2021/03/30 05:10:51;;;;;;;23.70;7.93;;;;;;;11.74;39.39;71870.78;4977234;28;20369;-88
2021/03/30 05:13:18;;;;;;;21.88;8.38;;;;;;;11.53;40.58;71851.25;4977267;28;20443;-88
2021/03/30 05:15:46;;;;;;;27.00;7.32;;;;;;;12.21;39.03;71923.84;4976930;28;20022;-88
2021/03/30 05:18:13;;;;;;;19.98;8.27;;;;;;;10.78;39.45;71760.53;4977312;28;20030;-86
2021/03/30 05:20:40;;;;;;;22.52;9.93;;;;;;;11.78;39.44;71875.53;4976349;28;20030;-87
2021/03/30 05:23:07;;;;;;;31.25;7.80;;;;;;;11.74;40.65;71875.69;4994140;28;20026;-87
2021/03/30 05:25:35;;;;;;;22.25;8.68;;;;;;;12.57;41.08;71965.63;4977135;28;20023;-87
2021/03/30 05:28:03;;;;;;;28.35;8.38;;;;;;;11.90;40.83;71894.19;4976360;28;20480;-87
2021/03/30 05:30:30;;;;;;;21.90;7.72;;;;;;;12.22;40.78;71925.03;4976682;28;20447;-85
2021/03/30 05:32:57;;;;;;;22.90;6.85;;;;;;;12.09;40.40;71910.75;4976699;28;20026;-87
2021/03/30 05:35:24;;;;;;;19.48;7.28;;;;;;;12.45;40.50;71952.50;4977637;28;20396;-87
2021/03/30 05:37:51;;;;;;;34.58;8.93;;;;;;;11.69;39.86;71866.97;4977459;28;20026;-87
2021/03/30 05:40:19;;;;;;;24.38;7.07;;;;;;;11.15;39.22;71802.22;4977189;28;20038;-86
2021/03/30 05:42:47;;;;;;;23.17;7.05;;;;;;;11.86;39.95;71884.50;4976785;28;20491;-86
2021/03/30 05:45:19;;;;;;;20.88;7.45;;;;;;;12.12;40.20;71914.31;4976480;28;20030;-87
2021/03/30 05:47:48;;;;;;;28.85;7.55;;;;;;;12.33;38.89;71938.19;4976245;28;20038;-87
2021/03/30 05:50:19;;;;;;;23.70;5.88;;;;;;;11.80;38.61;71880.09;4976310;28;20046;-87
2021/03/30 05:55:29;;;;;;;18.27;6.28;;;;;;;11.63;41.32;71855.50;4993875;28;20384;-87
2021/03/30 05:57:58;;;;;;;21.60;6.45;;;;;;;11.85;42.37;71882.69;4976153;28;20037;-85
2021/03/30 06:00:29;;;;;;;28.83;7.38;;;;;;;11.56;43.56;71849.31;4975628;28;20030;-85
2021/03/30 06:03:03;;;;;;;12.85;6.38;;;;;;;10.98;42.37;71783.16;4976221;28;20030;-87
2021/03/30 06:05:33;;;;;;;14.88;6.15;;;;;;;11.34;41.04;71827.63;4977630;28;20038;-85
2021/03/30 06:08:00;;;;;;;;;;;;;;;11.26;39.75;71818.09;4999328;28;20108;-86
2021/03/30 06:10:33;;;;;;;18.10;5.70;;;;;;;11.21;39.04;71809.38;4985403;28;20690;-87
2021/03/30 06:13:02;;;;;;;19.20;5.35;;;;;;;10.80;40.55;71765.66;4984663;28;20038;-85
2021/03/30 06:15:32;;;;;;;14.95;5.65;;;;;;;10.47;41.96;71727.53;4993364;28;20058;-87
2021/03/30 06:18:01;;;;;;;22.65;6.80;;;;;;;10.63;41.17;71743.25;4994827;28;20096;-86
2021/03/30 06:20:36;;;;;;;12.80;5.32;;;;;;;10.77;40.00;71764.25;4993778;28;20045;-86
2021/03/30 06:23:07;;;;;;;11.32;5.90;;;;;;;10.34;39.65;71709.28;4991521;28;20023;-86
2021/03/30 06:25:44;;;;;;;20.25;5.00;;;;;;;10.55;37.84;71733.72;4991610;28;20054;-87
2021/03/30 06:28:29;;;;;;;18.20;5.05;;;;;;;10.24;38.48;71697.97;4991524;28;20026;-86
2021/03/30 06:31:06;;;;;;;25.33;5.65;;;;;;;10.87;38.49;71770.66;4991340;28;20027;-87
2021/03/30 06:33:35;;;;;;;10.05;4.20;;;;;;;10.90;38.31;71770.88;4991447;28;20369;-88
2021/03/30 06:36:20;;;;;;;10.10;4.35;;;;;;;10.18;36.60;71691.44;4992843;28;20808;-86
2021/03/30 06:39:04;;;;;;;14.10;4.57;;;;;;;10.62;34.41;71744.22;4991321;28;20038;-87
2021/03/30 06:44:28;;;;;;;21.80;5.93;;;;;;;11.02;33.84;71790.69;4992509;28;20423;-87
2021/03/30 06:47:07;;;;;;;12.50;5.97;;;;;;;11.08;34.40;71794.50;4992493;28;20042;-87
2021/03/30 06:49:36;;;;;;;11.40;5.30;;;;;;;10.98;32.56;71785.31;4997705;28;20042;-87
2021/03/30 06:52:20;;;;;;;13.57;4.57;;;;;;;10.89;33.25;71775.78;4994679;28;20037;-87
2021/03/30 06:55:14;;;;;;;14.85;5.22;;;;;;;10.83;32.71;71763.16;4994893;28;20026;-87
2021/03/30 06:57:47;;;;;;;18.85;5.40;;;;;;;11.12;33.91;71801.41;4978823;28;20042;-87
2021/03/30 07:00:26;;;;;;;13.95;5.13;;;;;;;11.14;32.70;71801.03;4994165;28;20379;-86
2021/03/30 07:02:56;;;;;;;10.57;5.05;;;;;;;10.02;33.16;71672.34;4994185;28;20478;-88
2021/03/30 07:05:27;;;;;;;15.63;5.47;;;;;;;11.11;31.48;71798.06;4987973;28;20031;-87
2021/03/30 07:07:58;;;;;;;8.82;4.18;;;;;;;9.88;31.43;71656.91;4974596;28;20031;-86
2021/03/30 07:10:25;;;;;;;18.10;5.40;;;;;;;10.68;31.07;71749.22;4974514;28;20435;-87
2021/03/30 07:12:54;;;;;;;10.98;3.65;;;;;;;10.73;32.52;71754.56;4976599;28;20042;-87
2021/03/30 07:15:23;;;;;;;6.90;4.93;;;;;;;10.47;32.75;71724.78;4978338;28;20026;-87
2021/03/30 07:18:36;;;;;;;12.07;4.93;;;;;;;10.93;36.56;71780.56;4978267;28;20031;-86
2021/03/30 07:21:21;;;;;;;15.95;5.80;;;;;;;10.77;40.28;71758.75;4882473;29;20036;-87
2021/03/30 07:23:56;;;;;;;17.63;5.07;;;;;;;10.22;41.93;71701.66;4882376;29;20372;-87
2021/03/30 07:26:39;;;;;;;13.00;4.88;;;;;;;10.29;42.77;71706.06;4968066;28;20039;-87
2021/03/30 07:29:10;;;;;;;15.65;6.35;;;;;;;10.24;42.97;71698.56;4978569;28;20034;-86
2021/03/30 07:32:02;;;;;;;13.20;4.65;;;;;;;9.67;41.86;71633.06;4978536;28;20117;-86
2021/03/30 07:34:51;;;;;;;16.85;4.82;;;;;;;10.19;41.33;71692.63;4995997;28;20128;-88
2021/03/30 07:37:33;;;;;;;16.98;5.75;;;;;;;10.76;40.14;71763.06;4978592;28;20042;-86
2021/03/30 07:40:02;;;;;;;15.70;5.13;;;;;;;10.75;41.08;71756.94;4981628;28;20037;-87
2021/03/30 07:42:29;;;;;;;17.25;5.63;;;;;;;10.62;39.60;71744.22;5015507;28;20121;-87
2021/03/30 07:44:57;;;;;;;12.05;5.18;;;;;;;10.46;40.78;71723.59;5015054;28;20026;-87
2021/03/30 07:47:25;;;;;;;10.90;5.18;;;;;;;10.60;42.71;71744.56;4997848;28;20141;-86
2021/03/30 07:49:53;;;;;;;14.65;4.68;;;;;;;10.63;45.18;71748.16;4997669;28;20407;-88
2021/03/30 07:52:29;;;;;;;22.63;5.80;;;;;;;9.98;46.32;71668.78;4999282;28;20368;-88
2021/03/30 07:55:15;;;;;;;18.75;4.82;;;;;;;10.72;46.41;71753.38;4999638;28;20033;-87
2021/03/30 07:58:18;;;;;;;21.45;6.82;;;;;;;10.64;44.23;71746.59;4999797;28;20033;-88
2021/03/30 08:00:47;;;;;;;8.65;4.93;;;;;;;10.60;44.88;71741.84;4998653;28;20033;-87
2021/03/30 08:03:24;;;;;;;12.32;5.40;;;;;;;10.65;44.70;71747.78;4998913;28;20022;-86
2021/03/30 08:06:37;;;;;;;12.95;5.57;;;;;;;10.67;43.50;71747.41;4997238;28;20038;-87
2021/03/30 08:09:13;;;;;;;21.23;6.45;;;;;;;10.71;43.21;71754.34;4996846;28;20026;-87
2021/03/30 08:11:53;;;;;;;12.75;6.65;;;;;;;10.88;40.44;71776.75;4996798;28;20184;-86
2021/03/30 08:14:21;;;;;;;;;;;;;;;10.73;39.88;71760.06;4996954;28;20032;-86
2021/03/30 08:16:55;;;;;;;12.70;5.88;;;;;;;10.77;37.80;71761.50;4996352;28;19960;-86
2021/03/30 08:19:26;;;;;;;12.13;5.95;;;;;;;10.72;39.75;71753.38;4996359;28;20041;-86
2021/03/30 08:22:02;;;;;;;14.63;5.40;;;;;;;10.57;41.12;71738.25;4996253;28;20030;-86
2021/03/30 08:24:48;;;;;;;12.07;5.72;;;;;;;10.28;42.06;71702.72;4997153;28;20033;-85
2021/03/30 08:27:37;;;;;;;15.77;5.78;;;;;;;10.64;43.82;71744.44;4997626;28;20145;-85
2021/03/30 08:30:07;;;;;;;15.70;5.95;;;;;;;10.52;41.40;71730.16;5035022;28;20029;-86
2021/03/30 08:32:34;;;;;;;13.27;6.10;;;;;;;10.41;41.44;71717.63;5008501;28;20112;-87
2021/03/30 08:35:12;;;;;;;15.48;5.88;;;;;;;9.66;40.55;71634.03;4997411;28;20060;-85
2021/03/30 08:37:42;;;;;;;14.98;5.15;;;;;;;10.16;40.72;71694.53;4997007;28;20037;-88
2021/03/30 08:40:45;;;;;;;14.02;4.78;;;;;;;10.33;42.07;71708.69;4992794;28;20034;-86
2021/03/30 08:43:16;;;;;;;15.45;6.10;;;;;;;10.23;42.04;71700.13;4981296;28;20101;-87
2021/03/30 08:46:05;;;;;;;13.75;6.22;;;;;;;10.17;41.07;71689.63;4983072;28;20034;-88
2021/03/30 08:48:37;;;;;;;10.27;6.93;;;;;;;10.13;40.77;71685.47;4983799;28;20022;-87
2021/03/30 08:51:06;;;;;;;13.52;5.95;;;;;;;9.51;41.10;71614.63;4981509;28;20062;-87
2021/03/30 08:53:34;;;;;;;10.97;5.07;;;;;;;9.33;40.46;71596.53;4978050;28;20428;-87
2021/03/30 08:56:13;;;;;;;18.63;6.18;;;;;;;10.34;39.47;71715.38;4975921;28;20282;-87
2021/03/30 08:58:51;;;;;;;19.05;6.32;;;;;;;9.37;38.47;71600.69;4978938;28;20417;-87
2021/03/30 09:01:19;;;;;;;14.45;6.50;;;;;;;10.27;36.56;71704.28;4976315;28;20054;-88
2021/03/30 09:03:53;;;;;;;13.00;5.88;;;;;;;10.13;36.83;71690.97;4973714;28;20113;-87
2021/03/30 09:06:53;;;;;;;14.13;5.88;;;;;;;9.90;36.70;71664.75;4972481;28;20023;-86
2021/03/30 09:09:21;;;;;;;17.80;7.03;;;;;;;9.63;36.85;71633.78;4971425;28;20106;-87
2021/03/30 09:11:49;;;;;;;11.10;5.93;;;;;;;10.54;36.45;71733.13;4981947;28;20014;-86
2021/03/30 09:14:21;;;;;;;15.63;6.78;;;;;;;9.65;35.78;71633.44;4994076;28;20007;-86
2021/03/30 09:16:52;;;;;;;14.18;5.85;;;;;;;10.49;34.80;71724.44;4993417;28;20102;-87
2021/03/30 09:19:22;;;;;;;23.05;6.40;;;;;;;10.24;35.27;71704.03;4990624;28;20022;-88
2021/03/30 09:22:01;;;;;;;16.50;5.63;;;;;;;10.08;35.30;71680.09;4975035;28;20034;-88
2021/03/30 09:24:53;;;;;;;10.77;5.63;;;;;;;9.89;37.21;71663.56;4975407;28;20126;-86
2021/03/30 09:27:34;;;;;;;17.23;5.63;;;;;;;8.81;38.61;71539.19;4973283;28;20037;-88
2021/03/30 09:30:04;;;;;;;15.40;5.57;;;;;;;9.97;38.89;71670.34;4972802;28;20042;-87
2021/03/30 09:32:33;;;;;;;13.95;7.15;;;;;;;9.16;39.59;71579.66;4972497;28;20046;-86
2021/03/30 09:35:20;;;;;;;17.80;7.25;;;;;;;9.04;41.68;71563.81;4972496;28;20038;-86
2021/03/30 09:37:53;;;;;;;17.42;6.35;;;;;;;9.76;44.65;71645.34;4976118;28;20518;-87
2021/03/30 09:40:30;;;;;;;18.98;7.40;;;;;;;8.88;49.50;71542.03;4980499;28;20464;-86
2021/03/30 09:42:58;;;;;;;17.90;5.22;;;;;;;8.91;51.97;71545.59;4981380;28;20042;-86
2021/03/30 09:45:31;;;;;;;14.13;6.28;;;;;;;7.86;53.03;71424.88;4981423;28;20035;-86
2021/03/30 09:48:02;;;;;;;19.40;5.93;;;;;;;9.01;52.25;71556.91;4980970;28;20035;-87
2021/03/30 09:50:29;;;;;;;;;;;;;;;9.17;51.57;71581.44;4991918;28;20106;-85
2021/03/30 09:53:04;;;;;;;25.17;7.25;;;;;;;8.53;50.05;71501.59;4979668;28;19914;-86
2021/03/30 09:55:45;;;;;;;11.23;5.82;;;;;;;9.26;51.49;71588.19;4974422;28;20035;-87
2021/03/30 09:58:17;;;;;;;15.02;7.13;;;;;;;8.98;54.45;71553.34;4959472;28;20022;-85
2021/03/30 10:00:52;;;;;;;28.08;7.15;;;;;;;8.45;53.35;71493.25;4959345;28;20437;-86
2021/03/30 10:03:22;;;;;;;20.58;7.45;;;;;;;8.05;53.85;71452.34;4965116;28;20035;-87
2021/03/30 10:05:49;;;;;;;22.50;7.10;;;;;;;7.79;52.00;71417.75;4978136;28;20053;-88
2021/03/30 10:08:24;;;;;;;19.80;7.50;;;;;;;7.71;51.70;71410.97;4956835;28;20035;-87
2021/03/30 10:10:56;;;;;;;20.65;7.22;;;;;;;8.53;49.78;71502.19;4962203;28;20041;-86
2021/03/30 10:13:39;;;;;;;15.38;6.63;;;;;;;8.18;48.70;71467.19;4968090;28;20038;-87
2021/03/30 10:16:12;;;;;;;19.60;7.93;;;;;;;8.02;48.62;71443.31;4975582;28;20022;-87
2021/03/30 10:18:44;;;;;;;16.27;7.10;;;;;;;7.84;49.73;71422.50;4974068;28;20084;-86
2021/03/30 10:21:19;;;;;;;16.55;7.68;;;;;;;7.63;48.86;71404.19;4956279;28;20120;-92
2021/03/30 10:23:52;;;;;;;27.48;8.00;;;;;;;8.72;50.20;71526.34;4959735;28;20040;-91
2021/03/30 10:26:29;;;;;;;24.63;8.02;;;;;;;8.52;49.67;71505.88;4981054;28;20082;-93
2021/03/30 10:29:00;;;;;;;17.30;7.63;;;;;;;8.39;48.93;71486.13;4959889;28;20121;-91
2021/03/30 10:31:31;;;;;;;20.00;7.60;;;;;;;6.98;45.21;71327.19;4973115;28;20034;-87
2021/03/30 10:33:58;;;;;;;17.35;6.65;;;;;;;7.78;45.98;71415.94;4973340;28;20037;-86
2021/03/30 10:36:26;;;;;;;21.55;6.68;;;;;;;8.46;45.46;71494.41;4973836;28;20041;-88
2021/03/30 10:39:09;;;;;;;26.92;8.40;;;;;;;8.24;44.88;71474.34;4992400;28;20026;-89
2021/03/30 10:41:39;;;;;;;19.85;6.88;;;;;;;8.87;47.35;71540.84;4982576;28;20034;-85
2021/03/30 10:44:07;;;;;;;13.07;6.68;;;;;;;8.66;48.70;71522.53;4990050;28;20026;-85
2021/03/30 10:46:43;;;;;;;16.92;7.68;;;;;;;8.49;47.19;71500.13;4990731;28;20085;-87
2021/03/30 10:49:14;;;;;;;19.83;6.70;;;;;;;8.34;44.62;71486.22;4974323;28;20034;-86
2021/03/30 10:51:43;;;;;;;22.15;6.60;;;;;;;8.64;45.02;71517.41;4974155;28;20040;-84
2021/03/30 10:54:14;;;;;;;14.65;6.70;;;;;;;7.59;42.92;71393.97;4974015;28;20153;-84
2021/03/30 10:56:42;;;;;;;;;;;;;;;8.73;46.39;71524.78;4976290;28;20038;-84
2021/03/30 10:59:10;;;;;;;22.08;7.18;;;;;;;8.92;45.90;71546.19;4976343;28;19969;-84
2021/03/30 11:01:37;;;;;;;18.73;6.72;;;;;;;8.74;45.95;71531.47;4982429;28;20435;-83
2021/03/30 11:04:05;;;;;;;16.02;7.43;;;;;;;8.81;46.66;71537.06;4973623;28;20030;-81
2021/03/30 11:06:33;;;;;;;15.98;5.80;;;;;;;7.56;45.38;71387.69;4973648;28;20027;-82
2021/03/30 11:09:00;;;;;;;17.85;6.20;;;;;;;7.84;46.60;71423.09;4991065;28;20034;-84
2021/03/30 11:11:26;;;;;;;14.85;6.03;;;;;;;8.51;45.86;71499.81;4990525;28;20104;-83
2021/03/30 11:13:53;;;;;;;25.48;6.25;;;;;;;7.39;45.69;71371.41;4973824;28;20046;-84
2021/03/30 11:16:20;;;;;;;26.23;7.22;;;;;;;8.43;47.48;71495.75;4990779;28;20058;-83
2021/03/30 11:18:47;;;;;;;15.32;6.07;;;;;;;8.13;47.99;71461.28;4972259;28;20129;-83
2021/03/30 11:21:14;;;;;;;14.05;5.30;;;;;;;8.33;47.21;71481.72;4987499;28;20038;-83
2021/03/30 11:23:43;;;;;;;19.77;6.25;;;;;;;7.31;50.31;71361.91;4958478;28;20058;-84
2021/03/30 11:26:12;;;;;;;18.35;6.90;;;;;;;8.00;50.60;71444.25;4980248;28;20491;-83
2021/03/30 11:28:41;;;;;;;15.48;6.55;;;;;;;7.92;48.98;71438.06;4990389;28;20559;-84
2021/03/30 11:31:18;;;;;;;22.30;6.00;;;;;;;8.94;49.10;71548.56;4989481;28;20022;-90
2021/03/30 11:33:50;;;;;;;11.98;5.15;;;;;;;7.29;48.11;71359.50;4983783;28;20287;-92
2021/03/30 11:36:20;;;;;;;22.30;5.95;;;;;;;8.55;49.06;71507.31;4978192;28;20035;-91
2021/03/30 11:38:47;;;;;;;25.50;6.32;;;;;;;7.09;49.91;71336.94;4983634;28;20050;-94
2021/03/30 11:41:13;;;;;;;13.60;5.93;;;;;;;8.65;49.07;71518.00;4991445;28;20038;-83
2021/03/30 11:43:43;;;;;;;18.83;5.90;;;;;;;7.35;49.90;71372.72;4978267;28;20042;-90
2021/03/30 11:46:10;;;;;;;20.77;5.78;;;;;;;8.81;49.71;71537.06;4983095;28;20034;-92
2021/03/30 11:48:37;;;;;;;21.58;5.63;;;;;;;8.12;50.46;71457.94;4978630;28;20545;-91
2021/03/30 11:51:04;;;;;;;19.30;5.88;;;;;;;7.44;50.06;71376.75;4977215;28;20491;-85
2021/03/30 11:53:32;;;;;;;14.68;5.43;;;;;;;7.52;49.60;71388.97;4989022;28;20053;-86
2021/03/30 11:56:02;;;;;;;17.13;5.22;;;;;;;8.65;44.75;71518.00;4967744;28;20683;-86
2021/03/30 11:58:29;;;;;;;13.30;6.30;;;;;;;8.61;50.43;71513.84;4969279;28;20110;-85
2021/03/30 12:00:56;;;;;;;21.65;7.07;;;;;;;8.73;50.09;71527.53;4977601;28;20038;-89